Time;durP1;ratioP1;P1;durP2;ratioP2;P2;SDS_P1;SDS_P2;PMS_P1;PMS_P2;Temp;Humidity;BMP_temperature;BMP_pressure;BME280_temperature;BME280_humidity;BME280_pressure;Samples;Min_cycle;Max_cycle;Signal;HPM_P1;HPM_P2
2023/09/07 00:01:48;;;;;;;;;6.00;4.67;;;;;25.17;100.00;101300.34;5077538;27;45568;-73
2023/09/07 00:04:13;;;;;;;;;5.33;5.33;;;;;25.14;100.00;101302.28;5075301;27;70428;-74
2023/09/07 00:06:43;;;;;;;;;7.00;5.00;;;;;25.08;100.00;101298.88;5076575;27;70610;-75
2023/09/07 00:09:09;;;;;;;;;5.67;5.00;;;;;25.03;100.00;101292.75;5076895;27;45225;-74
2023/09/07 00:11:34;;;;;;;;;5.33;5.33;;;;;25.03;100.00;101287.34;5077577;27;45461;-74
2023/09/07 00:13:59;;;;;;;;;5.33;5.33;;;;;25.00;100.00;101292.03;5076008;27;46314;-74
2023/09/07 00:16:25;;;;;;;;;7.33;5.33;;;;;24.99;100.00;101295.69;5077228;27;47744;-74
2023/09/07 00:18:50;;;;;;;;;7.33;7.33;;;;;24.94;100.00;101289.59;5076688;27;61408;-74
2023/09/07 00:21:16;;;;;;;;;8.00;8.00;;;;;24.90;100.00;101288.84;5077005;27;45370;-75
2023/09/07 00:23:41;;;;;;;;;8.33;7.00;;;;;24.90;100.00;101282.56;5076021;27;46524;-74
2023/09/07 00:26:06;;;;;;;;;11.67;8.00;;;;;24.87;100.00;101293.47;5077061;27;45886;-74
2023/09/07 00:28:32;;;;;;;;;7.00;7.00;;;;;24.84;100.00;101283.69;5075882;27;63752;-73
2023/09/07 00:30:57;;;;;;;;;8.00;7.00;;;;;24.82;100.00;101288.25;5076611;27;59108;-74
2023/09/07 00:33:23;;;;;;;;;7.33;7.33;;;;;24.76;100.00;101281.28;5076645;27;47298;-74
2023/09/07 00:35:48;;;;;;;;;7.67;7.67;;;;;24.71;100.00;101282.41;5076869;27;45363;-73
2023/09/07 00:38:13;;;;;;;;;9.00;7.33;;;;;24.67;100.00;101289.78;5075964;27;61138;-72
2023/09/07 00:40:42;;;;;;;;;9.00;9.00;;;;;24.65;100.00;101285.38;5076320;28;60419;-73
2023/09/07 00:43:08;;;;;;;;;6.00;6.00;;;;;24.62;100.00;101290.91;5076117;27;46909;-73
2023/09/07 00:45:33;;;;;;;;;8.67;6.67;;;;;24.55;100.00;101284.84;5074593;28;64436;-75
2023/09/07 00:47:58;;;;;;;;;10.00;7.00;;;;;24.53;100.00;101290.31;5076231;28;57883;-74
2023/09/07 00:50:24;;;;;;;;;10.67;9.00;;;;;24.52;100.00;101288.56;5075813;27;63046;-74
2023/09/07 00:52:49;;;;;;;;;8.00;7.00;;;;;24.49;100.00;101283.28;5074935;27;60803;-73
2023/09/07 00:55:15;;;;;;;;;8.00;8.00;;;;;24.46;100.00;101283.41;5075548;27;45625;-73
2023/09/07 00:57:42;;;;;;;;;9.00;8.00;;;;;24.46;100.00;101277.13;5075557;28;45401;-73
2023/09/07 01:00:08;;;;;;;;;9.00;9.00;;;;;24.44;100.00;101282.56;5075564;27;45601;-73
2023/09/07 01:02:34;;;;;;;;;10.33;7.67;;;;;24.41;100.00;101282.72;5073180;28;47439;-74
2023/09/07 01:04:59;;;;;;;;;9.33;8.33;;;;;24.38;100.00;101281.94;5075317;27;46085;-74
2023/09/07 01:07:34;;;;;;;;;12.00;8.00;;;;;24.33;100.00;101275.81;5074805;28;45350;-73
2023/09/07 01:10:01;;;;;;;;;7.67;7.67;;;;;24.31;100.00;101276.75;5076231;28;45482;-73
2023/09/07 01:12:27;;;;;;;;;13.00;8.67;;;;;24.27;100.00;101271.53;5073637;28;47339;-73
2023/09/07 01:14:53;;;;;;;;;7.67;7.67;;;;;24.24;100.00;101269.84;5076190;27;45345;-73
2023/09/07 01:17:18;;;;;;;;;9.67;7.33;;;;;24.21;100.00;101266.38;5076046;27;45201;-73
2023/09/07 01:19:44;;;;;;;;;9.00;8.00;;;;;24.18;100.00;101272.78;5076252;28;45501;-73
2023/09/07 01:22:10;;;;;;;;;9.00;7.00;;;;;24.16;100.00;101269.25;5077477;28;70672;-73
2023/09/07 01:24:37;;;;;;;;;9.00;8.00;;;;;24.15;100.00;101266.63;5077734;28;71324;-73
2023/09/07 01:27:03;;;;;;;;;8.00;8.00;;;;;24.12;100.00;101270.28;5075640;27;45689;-73
2023/09/07 01:29:29;;;;;;;;;7.00;7.00;;;;;24.09;100.00;101273.13;5078868;28;45312;-74
2023/09/07 01:31:55;;;;;;;;;6.67;6.67;;;;;24.04;100.00;101267.03;5078176;28;46646;-74
2023/09/07 01:34:20;;;;;;;;;7.00;7.00;;;;;24.02;100.00;101274.28;5080017;27;45406;-73
2023/09/07 01:36:46;;;;;;;;;11.67;8.00;;;;;23.97;100.00;101271.78;5078927;27;57610;-73
2023/09/07 01:39:11;;;;;;;;;9.67;7.67;;;;;23.97;100.00;101268.19;5078936;27;66530;-73
2023/09/07 01:41:36;;;;;;;;;6.00;6.00;;;;;23.93;100.00;101275.53;5078728;28;64019;-73
2023/09/07 01:44:02;;;;;;;;;7.33;6.00;;;;;23.88;100.00;101271.25;5079198;28;56818;-73
2023/09/07 01:46:27;;;;;;;;;7.67;5.00;;;;;23.84;100.00;101270.47;5079483;27;45491;-73
2023/09/07 01:48:52;;;;;;;;;8.00;8.00;;;;;23.80;100.00;101274.22;5078813;27;62417;-74
2023/09/07 01:51:18;;;;;;;;;6.00;6.00;;;;;23.79;100.00;101275.16;5076325;27;72707;-73
2023/09/07 01:53:43;;;;;;;;;5.00;5.00;;;;;23.76;100.00;101265.38;5078969;28;46645;-73
2023/09/07 01:56:09;;;;;;;;;7.67;7.67;;;;;23.76;100.00;101275.28;5078443;27;63521;-74
2023/09/07 01:58:34;;;;;;;;;5.33;5.33;;;;;23.72;100.00;101279.00;5079692;28;45393;-73
2023/09/07 02:01:00;;;;;;;;;7.33;6.33;;;;;23.68;100.00;101277.34;5078751;27;47241;-73
2023/09/07 02:03:26;;;;;;;;;7.00;5.33;;;;;23.67;100.00;101272.91;5079576;28;45332;-73
2023/09/07 02:05:52;;;;;;;;;8.00;8.00;;;;;23.61;100.00;101265.91;5079192;27;45422;-73
2023/09/07 02:08:18;;;;;;;;;6.67;6.00;;;;;23.54;100.00;101272.41;5079217;27;45267;-73
2023/09/07 02:10:43;;;;;;;;;6.33;6.00;;;;;23.49;100.00;101267.22;5078107;27;70471;-73
2023/09/07 02:13:08;;;;;;;;;8.33;7.00;;;;;23.48;100.00;101262.72;5075545;27;45446;-73
2023/09/07 02:15:38;;;;;;;;;8.33;7.67;;;;;23.42;100.00;101262.97;5078681;27;45484;-73
2023/09/07 02:18:03;;;;;;;;;8.33;8.00;;;;;23.37;100.00;101256.84;5079398;27;45212;-73
2023/09/07 02:20:29;;;;;;;;;9.00;7.00;;;;;23.33;100.00;101254.31;5078867;27;47560;-73
2023/09/07 02:22:55;;;;;;;;;7.33;7.33;;;;;23.33;100.00;101273.19;5077918;27;70612;-74
2023/09/07 02:25:20;;;;;;;;;6.67;6.67;;;;;23.29;100.00;101261.66;5077860;27;66335;-74
2023/09/07 02:27:45;;;;;;;;;8.00;8.00;;;;;23.26;100.00;101261.75;5069819;27;64855;-74
2023/09/07 02:30:11;;;;;;;;;11.67;8.33;;;;;23.22;100.00;101268.16;5069335;28;46132;-75
2023/09/07 02:32:36;;;;;;;;;7.67;7.00;;;;;23.20;100.00;101270.03;5077646;28;45408;-73
2023/09/07 02:35:02;;;;;;;;;9.00;8.00;;;;;23.20;100.00;101267.34;5077552;27;65883;-75
2023/09/07 02:37:27;;;;;;;;;6.00;6.00;;;;;23.17;100.00;101273.72;5074226;27;45480;-73
2023/09/07 02:39:52;;;;;;;;;8.00;7.00;;;;;23.15;100.00;101272.00;5077301;27;70992;-74
2023/09/07 02:42:18;;;;;;;;;6.67;6.67;;;;;23.13;100.00;101265.81;5077714;27;67673;-74
2023/09/07 02:44:43;;;;;;;;;9.33;8.00;;;;;23.11;100.00;101268.53;5077090;27;62710;-73
2023/09/07 02:47:09;;;;;;;;;7.00;6.00;;;;;23.09;100.00;101269.53;5075657;27;50080;-74
2023/09/07 02:49:34;;;;;;;;;9.00;7.67;;;;;23.07;100.00;101266.91;5077938;28;47298;-73
2023/09/07 02:51:59;;;;;;;;;6.00;6.00;;;;;23.07;100.00;101263.31;5078237;27;53236;-73
2023/09/07 02:54:25;;;;;;;;;9.00;8.00;;;;;23.04;100.00;101263.41;5077819;27;63153;-73
2023/09/07 02:56:50;;;;;;;;;9.00;9.00;;;;;23.04;100.00;101258.91;5078630;27;45543;-73
2023/09/07 02:59:15;;;;;;;;;9.00;9.00;;;;;23.01;100.00;101253.63;5068562;28;71122;-74
2023/09/07 03:01:41;;;;;;;;;10.00;8.67;;;;;23.02;100.00;101260.78;5076866;27;67675;-73
2023/09/07 03:04:07;;;;;;;;;9.00;8.00;;;;;23.00;100.00;101263.50;5078506;28;45298;-74
2023/09/07 03:06:32;;;;;;;;;8.00;8.00;;;;;22.98;100.00;101257.31;5077677;28;45500;-74
2023/09/07 03:08:58;;;;;;;;;9.00;9.00;;;;;22.99;100.00;101260.88;5078273;27;46260;-74
2023/09/07 03:11:23;;;;;;;;;8.33;8.33;;;;;22.99;100.00;101258.19;5076839;28;45411;-73
2023/09/07 03:13:49;;;;;;;;;8.00;6.67;;;;;22.99;100.00;101259.06;5076739;28;45368;-74
2023/09/07 03:16:14;;;;;;;;;8.00;8.00;;;;;22.95;100.00;101260.09;5077269;27;62430;-73
2023/09/07 03:18:40;;;;;;;;;10.67;7.67;;;;;22.94;100.00;101250.25;5077979;28;45720;-74
2023/09/07 03:21:05;;;;;;;;;13.00;8.67;;;;;22.90;100.00;101253.97;5077402;28;45436;-74
2023/09/07 03:23:32;;;;;;;;;12.00;10.67;;;;;22.90;100.00;101258.47;5076988;27;61944;-73
2023/09/07 03:25:58;;;;;;;;;11.00;10.00;;;;;22.87;100.00;101248.66;5077976;27;45579;-73
2023/09/07 03:28:25;;;;;;;;;11.67;9.67;;;;;22.86;100.00;101257.69;5077115;28;46380;-73
2023/09/07 03:30:52;;;;;;;;;10.33;9.00;;;;;22.85;100.00;101249.63;5077924;27;45408;-73
2023/09/07 03:33:17;;;;;;;;;10.67;9.00;;;;;22.84;100.00;101250.56;5076258;28;45413;-73
2023/09/07 03:35:42;;;;;;;;;10.00;8.00;;;;;22.83;100.00;101248.81;5072531;27;45549;-73
2023/09/07 03:38:08;;;;;;;;;12.67;11.00;;;;;22.83;100.00;101246.13;5075492;28;46554;-73
2023/09/07 03:40:33;;;;;;;;;11.33;9.00;;;;;22.81;100.00;101245.31;5077749;28;45171;-73
2023/09/07 03:42:59;;;;;;;;;10.67;10.00;;;;;22.76;100.00;101248.16;5076920;27;45337;-73
2023/09/07 03:45:24;;;;;;;;;10.00;9.00;;;;;22.75;100.00;101254.47;5077054;27;60779;-74
2023/09/07 03:47:49;;;;;;;;;9.67;9.67;;;;;22.71;100.00;101247.41;5077372;27;47269;-75
2023/09/07 03:50:15;;;;;;;;;12.67;11.33;;;;;22.65;100.00;101253.88;5076977;28;66401;-74
2023/09/07 03:52:40;;;;;;;;;14.00;11.33;;;;;22.64;100.00;101259.31;5076423;28;63649;-74
2023/09/07 03:55:06;;;;;;;;;12.33;11.00;;;;;22.62;100.00;101255.78;5075520;28;62230;-75
2023/09/07 03:57:32;;;;;;;;;15.67;12.33;;;;;22.58;100.00;101264.88;5077192;27;47326;-75
2023/09/07 03:59:57;;;;;;;;;8.00;7.00;;;;;22.56;100.00;101267.63;5077728;27;45252;-74
2023/09/07 04:02:23;;;;;;;;;13.67;12.33;;;;;22.53;100.00;101258.75;5075743;28;45551;-74
2023/09/07 04:04:49;;;;;;;;;16.00;11.67;;;;;22.51;100.00;101261.50;5077022;27;61660;-74
2023/09/07 04:07:15;;;;;;;;;15.33;12.67;;;;;22.46;100.00;101260.78;5077060;27;46559;-73
2023/09/07 04:09:40;;;;;;;;;14.00;13.67;;;;;22.45;100.00;101261.72;5076744;27;45290;-75
2023/09/07 04:12:06;;;;;;;;;11.33;10.00;;;;;22.41;100.00;101260.91;5073811;27;63970;-73
2023/09/07 04:14:32;;;;;;;;;15.00;12.00;;;;;22.39;100.00;101264.59;5077132;27;45963;-73
2023/09/07 04:16:58;;;;;;;;;13.33;11.33;;;;;22.36;100.00;101259.28;5076653;27;46573;-74
2023/09/07 04:19:23;;;;;;;;;13.67;12.33;;;;;22.36;100.00;101262.84;5077217;27;45240;-73
2023/09/07 04:21:48;;;;;;;;;12.00;12.00;;;;;22.33;100.00;101262.97;5075985;27;63173;-72
2023/09/07 04:24:14;;;;;;;;;14.00;13.00;;;;;22.32;100.00;101261.22;5077402;28;45357;-74
2023/09/07 04:26:39;;;;;;;;;15.67;13.33;;;;;22.31;100.00;101262.13;5075202;28;68715;-73
2023/09/07 04:29:06;;;;;;;;;14.33;12.33;;;;;22.29;100.00;101261.31;5074056;27;49275;-73
2023/09/07 04:31:32;;;;;;;;;15.67;15.33;;;;;22.25;100.00;101267.69;5074903;28;45545;-73
2023/09/07 04:33:57;;;;;;;;;16.00;15.33;;;;;22.26;100.00;101264.06;5077492;27;45418;-73
2023/09/07 04:36:22;;;;;;;;;18.33;16.00;;;;;22.22;100.00;101265.13;5068785;27;70965;-72
2023/09/07 04:38:48;;;;;;;;;16.33;15.67;;;;;22.20;100.00;101265.13;5076863;27;45415;-73
2023/09/07 04:41:14;;;;;;;;;16.67;16.33;;;;;22.18;100.00;101263.44;5076816;28;45441;-74
2023/09/07 04:43:43;;;;;;;;;21.00;18.00;;;;;22.17;100.00;101257.19;5071222;28;45394;-74
2023/09/07 04:46:09;;;;;;;;;19.00;17.33;;;;;22.16;100.00;101260.81;5069590;27;46335;-74
2023/09/07 04:48:34;;;;;;;;;17.33;15.00;;;;;22.15;100.00;101261.69;5073419;28;45881;-73
2023/09/07 04:51:01;;;;;;;;;18.33;17.33;;;;;22.15;100.00;101263.53;5070162;28;66343;-74
2023/09/07 04:53:31;;;;;;;;;15.00;15.00;;;;;22.08;100.00;101264.59;5071433;28;45587;-73
2023/09/07 04:55:57;;;;;;;;;17.67;16.33;;;;;22.07;100.00;101273.59;5070427;28;47628;-74
2023/09/07 04:58:23;;;;;;;;;15.00;15.00;;;;;22.05;100.00;101270.06;5068552;27;45470;-73
2023/09/07 05:00:48;;;;;;;;;14.67;14.67;;;;;22.07;100.00;101273.59;5067187;28;46173;-75
2023/09/07 05:03:13;;;;;;;;;16.33;16.33;;;;;22.05;100.00;101281.72;5071358;27;60011;-74
2023/09/07 05:05:39;;;;;;;;;19.00;15.67;;;;;21.98;100.00;101283.69;5174580;22;45774;-73
2023/09/07 05:08:05;;;;;;;;;18.33;18.00;;;;;21.95;100.00;101291.00;5050231;27;46017;-73
2023/09/07 05:10:33;;;;;;;;;15.00;14.33;;;;;21.91;100.00;101283.94;5058921;28;45379;-73
2023/09/07 05:12:58;;;;;;;;;17.00;14.67;;;;;21.93;100.00;101290.13;5048897;28;45572;-74
2023/09/07 05:15:24;;;;;;;;;10.67;10.67;;;;;21.91;100.00;101290.19;5057518;28;46623;-73
2023/09/07 05:17:49;;;;;;;;;18.00;12.33;;;;;21.95;100.00;101291.88;5048242;28;46882;-74
2023/09/07 05:20:14;;;;;;;;;15.00;15.00;;;;;21.89;100.00;101292.03;5056971;28;62647;-73
2023/09/07 05:22:40;;;;;;;;;13.33;11.67;;;;;21.84;100.00;101288.59;5043474;28;56504;-73
2023/09/07 05:25:06;;;;;;;;;12.33;12.33;;;;;21.83;100.00;101294.88;5050246;28;47680;-75
2023/09/07 05:27:33;;;;;;;;;16.00;14.67;;;;;21.82;100.00;101300.31;5046118;28;45466;-74
2023/09/07 05:29:58;;;;;;;;;9.33;9.33;;;;;21.79;100.00;101300.41;5054211;28;45445;-73
2023/09/07 05:32:24;;;;;;;;;15.33;12.00;;;;;21.80;100.00;101294.97;5049643;28;62734;-74
2023/09/07 05:34:49;;;;;;;;;12.67;11.67;;;;;21.81;100.00;101299.44;5047747;28;71895;-73
2023/09/07 05:37:14;;;;;;;;;14.33;11.67;;;;;21.77;100.00;101308.50;5054988;28;69344;-74
2023/09/07 05:39:40;;;;;;;;;16.00;13.00;;;;;21.78;100.00;101301.31;5061634;27;45585;-74
2023/09/07 05:42:05;;;;;;;;;15.67;12.00;;;;;21.77;100.00;101303.13;5055633;28;58955;-73
2023/09/07 05:44:30;;;;;;;;;13.00;13.00;;;;;21.77;100.00;101296.88;5063969;27;69573;-73
2023/09/07 05:46:58;;;;;;;;;12.00;12.00;;;;;21.81;100.00;101298.56;5054599;28;65460;-74
2023/09/07 05:49:23;;;;;;;;;17.00;14.00;;;;;21.81;100.00;101306.63;5063603;28;45465;-72
2023/09/07 05:51:48;;;;;;;;;15.33;15.33;;;;;21.83;100.00;101302.06;5055686;28;63070;-73
2023/09/07 05:54:14;;;;;;;;;15.00;13.67;;;;;21.85;100.00;101309.19;5048641;27;71648;-75
2023/09/07 05:56:39;;;;;;;;;14.00;12.67;;;;;21.86;100.00;101307.38;5044709;28;69400;-73
2023/09/07 05:59:04;;;;;;;;;14.67;14.67;;;;;21.89;100.00;101310.88;5056406;28;67297;-73
2023/09/07 06:01:30;;;;;;;;;16.33;14.67;;;;;21.96;100.00;101311.56;5058430;28;62716;-74
2023/09/07 06:03:55;;;;;;;;;13.00;10.67;;;;;21.96;100.00;101311.56;5058398;27;66116;-73
2023/09/07 06:06:20;;;;;;;;;19.67;14.33;;;;;21.96;100.00;101317.81;5046679;28;45854;-73
2023/09/07 06:08:46;;;;;;;;;21.00;15.00;;;;;22.01;100.00;101320.38;5059202;28;64364;-73
2023/09/07 06:11:11;;;;;;;;;13.33;12.33;;;;;22.01;100.00;101306.94;5056495;28;60335;-73
2023/09/07 06:13:36;;;;;;;;;16.00;13.00;;;;;22.02;100.00;101313.19;5054625;28;45600;-74
2023/09/07 06:16:02;;;;;;;;;16.00;14.33;;;;;22.08;100.00;101315.72;5053242;28;68841;-72
2023/09/07 06:18:28;;;;;;;;;17.00;14.33;;;;;22.25;100.00;101313.44;5051858;28;45616;-72
2023/09/07 06:20:53;;;;;;;;;15.33;13.33;;;;;22.23;100.00;101315.28;5062369;27;45505;-73
2023/09/07 06:23:18;;;;;;;;;12.00;11.33;;;;;22.24;100.00;101317.06;5067627;28;71249;-72
2023/09/07 06:25:44;;;;;;;;;15.00;15.00;;;;;22.26;100.00;101322.38;5055699;27;64708;-72
2023/09/07 06:28:09;;;;;;;;;15.00;13.33;;;;;22.36;100.00;101315.78;5053074;28;58122;-72
2023/09/07 06:30:34;;;;;;;;;14.00;14.00;;;;;22.43;100.00;101315.59;5058872;28;56610;-73
2023/09/07 06:33:00;;;;;;;;;19.33;14.33;;;;;22.36;100.00;101313.09;5057383;28;46102;-73
2023/09/07 06:35:26;;;;;;;;;13.33;13.33;;;;;22.43;100.00;101306.63;5060374;28;45418;-73
2023/09/07 06:37:51;;;;;;;;;13.67;13.00;;;;;22.44;100.00;101303.00;5062380;28;65915;-73
2023/09/07 06:40:17;;;;;;;;;13.33;12.67;;;;;22.50;100.00;101308.19;5061141;27;64915;-73
2023/09/07 06:42:43;;;;;;;;;14.67;14.33;;;;;22.47;100.00;101309.16;5059406;28;46414;-75
2023/09/07 06:45:09;;;;;;;;;11.67;10.67;;;;;22.59;100.00;101307.91;5058030;28;45337;-74
2023/09/07 06:47:34;;;;;;;;;11.33;10.00;;;;;22.68;100.00;101298.66;5056740;28;47062;-73
2023/09/07 06:50:00;;;;;;;;;11.67;10.00;;;;;22.74;100.00;101301.16;5056016;28;61368;-74
2023/09/07 06:52:25;;;;;;;;;10.00;10.00;;;;;22.78;100.00;101302.81;5054310;28;67647;-74
2023/09/07 06:54:53;;;;;;;;;13.33;10.00;;;;;22.85;100.00;101306.19;5057415;28;45400;-75
2023/09/07 06:57:19;;;;;;;;;9.33;9.33;;;;;22.90;100.00;101301.56;5058041;28;45529;-73
2023/09/07 06:59:44;;;;;;;;;13.00;11.33;;;;;22.99;100.00;101306.66;5052775;28;45455;-73
2023/09/07 07:02:10;;;;;;;;;11.33;9.67;;;;;23.07;100.00;101310.00;5059665;28;69656;-74
2023/09/07 07:04:35;;;;;;;;;10.00;9.00;;;;;23.16;100.00;101311.47;5055019;28;47504;-74
2023/09/07 07:07:03;;;;;;;;;14.33;12.67;;;;;23.22;100.00;101312.19;5050647;28;64668;-76
2023/09/07 07:09:33;;;;;;;;;12.00;10.67;;;;;23.33;100.00;101308.22;5052710;28;45426;-75
2023/09/07 07:12:00;;;;;;;;;11.33;10.00;;;;;23.39;100.00;101306.22;5061494;28;46833;-75
2023/09/07 07:14:26;;;;;;;;;10.00;10.00;;;;;23.49;100.00;101309.47;5056967;28;45167;-75
2023/09/07 07:16:51;;;;;;;;;11.00;11.00;;;;;23.57;100.00;101309.19;5062922;28;45537;-75
2023/09/07 07:19:16;;;;;;;;;13.67;11.00;;;;;23.64;100.00;101298.16;5064195;28;62172;-74
2023/09/07 07:21:42;;;;;;;;;16.33;11.00;;;;;23.69;100.00;101296.16;5059635;28;66332;-72
2023/09/07 07:24:07;;;;;;;;;14.00;11.00;;;;;23.77;100.00;101306.69;5058047;28;69343;-73
2023/09/07 07:26:33;;;;;;;;;12.00;12.00;;;;;23.78;100.00;101292.28;5056594;28;45529;-73
2023/09/07 07:28:58;;;;;;;;;17.33;15.00;;;;;23.83;100.00;101301.06;5058720;27;45178;-73
2023/09/07 07:31:24;;;;;;;;;14.33;12.33;;;;;23.88;100.00;101291.00;5059635;28;45763;-72
2023/09/07 07:33:50;;;;;;;;;14.00;13.00;;;;;23.90;100.00;101301.72;5059014;28;45498;-72
2023/09/07 07:36:16;;;;;;;;;14.33;13.00;;;;;23.93;100.00;101304.31;5057136;28;45374;-74
2023/09/07 07:38:41;;;;;;;;;15.00;15.00;;;;;24.07;100.00;101306.47;5052660;28;45545;-73
2023/09/07 07:41:07;;;;;;;;;18.33;13.00;;;;;24.03;100.00;101305.75;5050947;28;68374;-73
2023/09/07 07:43:33;;;;;;;;;12.67;12.67;;;;;24.17;100.00;101305.19;5056808;28;63840;-73
2023/09/07 07:45:59;;;;;;;;;10.33;9.33;;;;;24.18;100.00;101309.66;5052354;27;45348;-73
2023/09/07 07:48:24;;;;;;;;;13.33;12.67;;;;;24.21;100.00;101312.25;5055341;28;45773;-73
2023/09/07 07:50:50;;;;;;;;;14.00;10.00;;;;;24.25;100.00;101314.78;5052291;28;47237;-73
2023/09/07 07:53:15;;;;;;;;;10.67;9.67;;;;;24.25;100.00;101308.50;5056817;28;68654;-73
2023/09/07 07:55:40;;;;;;;;;14.33;13.33;;;;;24.28;100.00;101302.97;5052164;28;56276;-74
2023/09/07 07:58:09;;;;;;;;;14.00;12.33;;;;;24.30;100.00;101306.50;5055681;28;45402;-74
2023/09/07 08:00:38;;;;;;;;;13.00;11.00;;;;;24.34;100.00;101305.44;5053679;28;46513;-74
2023/09/07 08:03:08;;;;;;;;;12.33;10.00;;;;;24.38;100.00;101311.63;5055992;28;45429;-74
2023/09/07 08:05:34;;;;;;;;;12.00;10.33;;;;;24.42;100.00;101307.88;5050955;28;45475;-73
2023/09/07 08:08:00;;;;;;;;;11.00;11.00;;;;;24.47;100.00;101309.47;5050325;28;45527;-74
2023/09/07 08:10:26;;;;;;;;;11.00;10.00;;;;;24.51;100.00;101302.13;5055185;28;46951;-74
2023/09/07 08:12:54;;;;;;;;;14.33;11.33;;;;;24.52;100.00;101306.59;5052256;28;45444;-73
2023/09/07 08:15:21;;;;;;;;;12.00;10.67;;;;;24.54;100.00;101313.66;5049994;28;45499;-74
2023/09/07 08:17:47;;;;;;;;;15.67;10.67;;;;;24.62;100.00;101307.97;5054119;28;45673;-74
2023/09/07 08:20:13;;;;;;;;;12.00;10.67;;;;;24.68;100.00;101323.06;5046940;28;46572;-74
2023/09/07 08:22:40;;;;;;;;;13.00;12.00;;;;;24.72;100.00;101308.50;5052876;28;45482;-74
2023/09/07 08:25:07;;;;;;;;;13.00;12.00;;;;;24.76;100.00;101310.13;5057747;28;45498;-75
2023/09/07 08:27:32;;;;;;;;;11.33;10.00;;;;;24.80;100.00;101309.06;5052207;28;45519;-73
2023/09/07 08:29:59;;;;;;;;;11.00;11.00;;;;;24.84;100.00;101299.91;5050365;28;49534;-72
2023/09/07 08:32:24;;;;;;;;;11.33;10.00;;;;;24.91;100.00;101305.91;5053998;28;45481;-73
2023/09/07 08:34:50;;;;;;;;;10.67;10.67;;;;;24.94;100.00;101301.28;5057390;28;45652;-75
2023/09/07 08:37:16;;;;;;;;;12.00;11.67;;;;;25.01;100.00;101304.59;5055376;28;45506;-74
2023/09/07 08:39:41;;;;;;;;;12.67;11.67;;;;;25.07;100.00;101309.78;5057219;28;46622;-73
2023/09/07 08:42:07;;;;;;;;;12.00;12.00;;;;;25.14;100.00;101307.69;5058655;27;45509;-73
2023/09/07 08:44:33;;;;;;;;;12.00;12.00;;;;;25.18;100.00;101302.09;5053801;28;45523;-73
2023/09/07 08:47:00;;;;;;;;;14.33;10.33;;;;;25.24;100.00;101290.13;5056937;28;45441;-73
2023/09/07 08:49:25;;;;;;;;;14.00;12.33;;;;;25.30;100.00;101296.19;5050733;28;46611;-73
2023/09/07 08:51:51;;;;;;;;;10.33;10.33;;;;;25.38;100.00;101294.97;5049809;28;69928;-73
2023/09/07 08:54:17;;;;;;;;;13.00;10.67;;;;;25.44;100.00;101287.47;5053676;28;45453;-74
2023/09/07 08:56:44;;;;;;;;;10.67;10.67;;;;;25.52;100.00;101284.44;5054708;28;45748;-73
2023/09/07 08:59:10;;;;;;;;;10.00;10.00;;;;;25.57;100.00;101291.41;5056354;27;47609;-73
2023/09/07 09:01:37;;;;;;;;;12.00;12.00;;;;;25.65;100.00;101287.47;5057009;28;66920;-73
2023/09/07 09:04:02;;;;;;;;;17.33;10.67;;;;;25.73;100.00;101288.03;5052775;28;46165;-73
2023/09/07 09:06:28;;;;;;;;;10.67;9.00;;;;;25.79;100.00;101290.47;5054107;28;45395;-73
2023/09/07 09:08:56;;;;;;;;;12.00;12.00;;;;;25.88;100.00;101287.34;5047432;28;47656;-73
2023/09/07 09:11:23;;;;;;;;;11.67;10.00;;;;;25.94;100.00;101272.63;5053119;28;45463;-73
2023/09/07 09:13:49;;;;;;;;;11.33;10.67;;;;;26.04;100.00;101277.56;5059728;28;45471;-73
2023/09/07 09:16:15;;;;;;;;;12.67;10.33;;;;;26.09;100.00;101272.81;5061747;28;45599;-73
2023/09/07 09:18:59;;;;;;;;;13.00;10.00;;;;;26.17;100.00;101269.75;5053264;28;46839;-74
2023/09/07 09:21:25;;;;;;;;;9.33;7.00;;;;;26.25;100.00;101272.97;5052586;28;45870;-72
2023/09/07 09:23:53;;;;;;;;;14.00;11.33;;;;;26.30;100.00;101267.34;5059323;28;45318;-73
2023/09/07 09:26:19;;;;;;;;;11.33;10.33;;;;;26.38;100.00;101268.75;5049210;28;45521;-76
2023/09/07 09:28:45;;;;;;;;;11.67;11.67;;;;;26.49;100.00;101279.09;5052488;28;47511;-76
2023/09/07 09:31:12;;;;;;;;;16.00;11.67;;;;;26.57;100.00;101274.16;5050912;28;45319;-75
2023/09/07 09:33:41;;;;;;;;;11.00;9.00;;;;;26.66;100.00;101267.44;5049077;28;45560;-75
2023/09/07 09:36:07;;;;;;;;;12.00;11.00;;;;;26.72;100.00;101274.38;5058093;28;45333;-76
2023/09/07 09:38:33;;;;;;;;;12.00;10.00;;;;;26.82;100.00;101272.97;5055420;27;46244;-76
2023/09/07 09:40:59;;;;;;;;;12.00;10.33;;;;;26.89;100.00;101275.28;5062715;28;46139;-76
2023/09/07 09:43:25;;;;;;;;;12.00;12.00;;;;;26.98;100.00;101273.97;5058548;28;45484;-76
2023/09/07 09:45:52;;;;;;;;;12.33;11.00;;;;;27.06;100.00;101269.03;5063435;28;45502;-77
2023/09/07 09:48:19;;;;;;;;;12.33;11.00;;;;;27.14;100.00;101277.69;5059154;28;47365;-76
2023/09/07 09:50:46;;;;;;;;;17.00;15.00;;;;;27.19;100.00;101269.31;5059056;28;45274;-77
2023/09/07 09:53:15;;;;;;;;;15.33;11.00;;;;;27.27;100.00;101275.25;5059644;28;45432;-79
2023/09/07 09:55:41;;;;;;;;;12.00;11.00;;;;;27.34;100.00;101270.38;5057726;28;46174;-75
2023/09/07 09:58:06;;;;;;;;;11.00;11.00;;;;;27.40;100.00;101275.47;5059466;28;46635;-76
2023/09/07 10:00:37;;;;;;;;;12.33;11.33;;;;;27.48;100.00;101270.50;5060074;28;53072;-75
2023/09/07 10:03:07;;;;;;;;;12.00;10.33;;;;;27.59;100.00;101273.56;5065520;28;45567;-76
2023/09/07 10:05:34;;;;;;;;;12.33;11.33;;;;;27.66;100.00;101274.97;5057687;28;45602;-76
2023/09/07 10:08:11;;;;;;;;;10.00;10.00;;;;;27.75;100.00;101270.03;5056129;28;46671;-77
2023/09/07 10:10:37;;;;;;;;;10.67;9.67;;;;;27.84;100.00;101269.53;5058608;28;45433;-77
2023/09/07 10:13:06;;;;;;;;;12.33;10.00;;;;;27.93;100.00;101277.19;5060034;27;45188;-76
2023/09/07 10:15:41;;;;;;;;;11.00;11.00;;;;;28.02;100.00;101271.25;5058920;28;45644;-77
2023/09/07 10:18:13;;;;;;;;;12.33;12.33;;;;;28.08;100.00;101264.63;5058842;27;46847;-77
2023/09/07 10:20:52;;;;;;;;;11.00;11.00;;;;;28.16;100.00;101271.34;5057164;28;45515;-75
2023/09/07 10:23:18;;;;;;;;;11.00;11.00;;;;;28.24;100.00;101272.78;5064698;28;45394;-75
2023/09/07 10:25:48;;;;;;;;;9.67;9.67;;;;;28.33;100.00;101269.56;5056448;28;45637;-75
2023/09/07 10:28:24;;;;;;;;;12.00;12.00;;;;;28.43;100.00;101265.38;5054066;28;47047;-76
2023/09/07 10:30:59;;;;;;;;;13.00;13.00;;;;;28.51;100.00;101268.53;5057050;28;45445;-77
2023/09/07 10:33:24;;;;;;;;;13.33;12.33;;;;;28.56;100.00;101269.16;5058270;28;45828;-75
2023/09/07 10:35:50;;;;;;;;;9.67;9.67;;;;;28.64;100.00;101261.44;5057482;28;45445;-75
2023/09/07 10:38:15;;;;;;;;;13.00;11.00;;;;;28.73;100.00;101260.03;5056690;28;68214;-75
2023/09/07 10:40:44;;;;;;;;;13.67;11.00;;;;;28.82;100.00;101256.78;5055815;28;69222;-76
2023/09/07 10:43:10;;;;;;;;;13.33;11.67;;;;;28.91;100.00;101258.94;5062314;28;45419;-78
2023/09/07 10:45:35;;;;;;;;;15.33;12.67;;;;;29.00;100.00;101256.69;5056564;27;45516;-77
2023/09/07 10:48:03;;;;;;;;;13.00;13.00;;;;;29.08;100.00;101257.97;5059321;28;72084;-77
2023/09/07 10:50:29;;;;;;;;;10.67;9.33;;;;;29.18;100.00;101253.72;5058579;28;45497;-77
2023/09/07 10:52:54;;;;;;;;;12.33;12.33;;;;;29.26;100.00;101239.69;5060124;28;67134;-78
2023/09/07 10:55:19;;;;;;;;;13.33;12.00;;;;;29.36;100.00;101242.72;5057173;28;62858;-77
2023/09/07 10:57:46;;;;;;;;;16.00;16.00;;;;;29.43;100.00;101242.25;5058849;28;68159;-76
2023/09/07 11:00:13;;;;;;;;;13.33;12.00;;;;;29.50;100.00;101246.31;5058295;28;45567;-77
2023/09/07 11:02:38;;;;;;;;;14.00;11.33;;;;;29.60;100.00;101235.78;5058465;28;45517;-76